createdAt,value
2019-04-01T00:02:43.674Z,9.10
2019-04-01T00:05:33.763Z,9.00
2019-04-01T00:08:23.489Z,9.00
2019-04-01T00:11:13.479Z,9.00
2019-04-01T00:14:03.256Z,8.90
2019-04-01T00:16:53.427Z,8.90
2019-04-01T00:19:43.135Z,8.90
2019-04-01T00:22:32.019Z,8.80
2019-04-01T00:25:21.193Z,8.80
2019-04-01T00:28:11.118Z,8.80
2019-04-01T00:31:01.040Z,8.70
2019-04-01T00:33:50.862Z,8.70
2019-04-01T00:36:40.214Z,8.70
2019-04-01T00:39:29.956Z,8.70
2019-04-01T00:42:33.048Z,8.60
2019-04-01T00:45:23.590Z,8.60
2019-04-01T00:48:12.413Z,8.60
2019-04-01T00:51:02.437Z,8.60
2019-04-01T00:53:51.491Z,8.50
2019-04-01T00:56:43.097Z,8.50
2019-04-01T00:59:32.921Z,8.40
2019-04-01T01:02:22.155Z,8.40
2019-04-01T01:05:12.070Z,8.30
2019-04-01T01:08:03.046Z,8.20
2019-04-01T01:10:52.980Z,8.20
2019-04-01T01:13:42.757Z,8.10
2019-04-01T01:16:32.027Z,8.00
2019-04-01T01:19:21.754Z,8.00
2019-04-01T01:22:10.536Z,7.90
2019-04-01T01:24:59.950Z,7.90
2019-04-01T01:27:48.793Z,7.80
2019-04-01T01:30:37.981Z,7.80
2019-04-01T01:33:27.937Z,7.70
2019-04-01T01:36:17.923Z,7.70
2019-04-01T01:39:06.745Z,7.60
2019-04-01T01:41:56.629Z,7.60
2019-04-01T01:44:46.203Z,7.50
2019-04-01T01:47:36.062Z,7.50
2019-04-01T01:50:25.756Z,7.50
2019-04-01T01:53:15.663Z,7.50
2019-04-01T01:56:05.698Z,7.40
2019-04-01T01:58:55.677Z,7.40
2019-04-01T02:01:45.800Z,7.40
2019-04-01T02:04:35.459Z,7.40
2019-04-01T02:07:25.675Z,7.40
2019-04-01T02:10:17.350Z,7.40
2019-04-01T02:13:07.096Z,7.40
2019-04-01T02:15:57.112Z,7.30
2019-04-01T02:18:46.915Z,7.20
2019-04-01T02:21:36.747Z,7.20
2019-04-01T02:24:26.812Z,7.20
2019-04-01T02:27:16.136Z,7.20
2019-04-01T02:30:05.844Z,7.20
2019-04-01T02:32:55.177Z,7.20
2019-04-01T02:35:45.417Z,7.10
2019-04-01T02:38:35.388Z,7.10
2019-04-01T02:41:25.599Z,7.10
2019-04-01T02:44:14.889Z,7.10
2019-04-01T02:47:04.595Z,7.10
2019-04-01T02:49:53.522Z,7.00
2019-04-01T02:52:43.066Z,7.00
2019-04-01T02:55:31.992Z,6.90
2019-04-01T02:58:21.764Z,6.90
2019-04-01T03:01:11.659Z,6.90
2019-04-01T03:04:01.366Z,6.80
2019-04-01T03:06:51.616Z,6.80
2019-04-01T03:09:40.700Z,6.70
2019-04-01T03:12:30.530Z,6.70
2019-04-01T03:15:19.639Z,6.70
2019-04-01T03:18:09.442Z,6.70
2019-04-01T03:20:59.169Z,6.60
2019-04-01T03:23:49.070Z,6.60
2019-04-01T03:26:38.920Z,6.50
2019-04-01T03:29:28.186Z,6.50
2019-04-01T03:32:17.997Z,6.40
2019-04-01T03:35:07.746Z,6.40
2019-04-01T03:37:56.607Z,6.40
2019-04-01T03:40:45.887Z,6.40
2019-04-01T03:43:34.994Z,6.40
2019-04-01T03:46:23.783Z,6.30
2019-04-01T03:49:13.053Z,6.30
2019-04-01T03:52:02.266Z,6.30
2019-04-01T03:54:51.119Z,6.30
2019-04-01T03:57:42.255Z,6.30
2019-04-01T04:00:32.036Z,6.30
2019-04-01T04:03:21.261Z,6.30
2019-04-01T04:06:10.316Z,6.20
2019-04-01T04:09:02.144Z,6.20
2019-04-01T04:11:52.664Z,6.20
2019-04-01T04:14:43.016Z,6.20
2019-04-01T04:17:32.736Z,6.10
2019-04-01T04:20:22.957Z,6.10
2019-04-01T04:23:12.092Z,6.10
2019-04-01T04:26:01.954Z,6.10
2019-04-01T04:28:51.122Z,6.00
2019-04-01T04:31:41.084Z,6.00
2019-04-01T04:34:30.770Z,6.00
2019-04-01T04:37:20.626Z,6.00
2019-04-01T04:40:10.660Z,6.00
2019-04-01T04:42:59.798Z,5.90
2019-04-01T04:45:49.677Z,5.90
2019-04-01T04:48:38.763Z,5.90
2019-04-01T04:51:28.496Z,5.80
2019-04-01T04:54:18.340Z,5.80
2019-04-01T04:57:08.222Z,5.80
2019-04-01T04:59:57.843Z,5.80
2019-04-01T05:02:48.075Z,5.80
2019-04-01T05:05:37.817Z,5.80
2019-04-01T05:08:28.026Z,5.80
2019-04-01T05:11:16.987Z,5.80
2019-04-01T05:14:06.571Z,5.80
2019-04-01T05:16:56.621Z,5.80
2019-04-01T05:19:45.770Z,5.80
2019-04-01T05:22:35.152Z,5.90
2019-04-01T05:25:25.356Z,5.90
2019-04-01T05:28:16.583Z,6.00
2019-04-01T05:31:08.317Z,6.10
2019-04-01T05:34:01.051Z,6.20
2019-04-01T05:36:51.023Z,6.30
2019-04-01T05:39:41.047Z,6.50
2019-04-01T05:42:33.696Z,6.70
2019-04-01T05:45:23.113Z,6.90
2019-04-01T05:48:14.317Z,7.20
2019-04-01T05:51:04.062Z,7.60
2019-04-01T05:53:53.355Z,8.00
2019-04-01T05:56:43.586Z,8.40
2019-04-01T05:59:33.316Z,8.80
2019-04-01T06:02:22.500Z,9.30
2019-04-01T06:05:11.805Z,9.70
2019-04-01T06:08:00.995Z,10.20
2019-04-01T06:10:51.641Z,10.50
2019-04-01T06:13:40.755Z,10.90
2019-04-01T06:16:29.856Z,11.40
2019-04-01T06:19:19.738Z,11.80
2019-04-01T06:22:09.279Z,12.20
2019-04-01T06:24:59.622Z,12.70
2019-04-01T06:27:49.318Z,13.10
2019-04-01T06:30:40.294Z,13.50
2019-04-01T06:33:31.508Z,13.90
2019-04-01T06:36:21.397Z,14.30
2019-04-01T06:39:11.266Z,14.70
2019-04-01T06:42:01.153Z,15.10
2019-04-01T06:44:50.611Z,15.60
2019-04-01T06:47:40.819Z,16.10
2019-04-01T06:50:30.583Z,16.70
2019-04-01T06:53:20.478Z,17.30
2019-04-01T06:56:09.433Z,17.80
2019-04-01T06:58:59.098Z,18.10
2019-04-01T07:01:49.309Z,18.40
2019-04-01T07:04:38.632Z,18.70
2019-04-01T07:07:28.452Z,18.90
2019-04-01T07:10:18.325Z,19.20
2019-04-01T07:13:08.375Z,19.50
2019-04-01T07:15:58.257Z,19.70
2019-04-01T07:18:48.232Z,19.90
2019-04-01T07:21:37.489Z,20.20
2019-04-01T07:24:27.697Z,20.50
2019-04-01T07:27:17.965Z,20.80
2019-04-01T07:30:08.378Z,21.10
2019-04-01T07:32:58.068Z,21.50
2019-04-01T07:35:47.243Z,21.90
2019-04-01T07:38:36.381Z,22.40
2019-04-01T07:41:26.212Z,22.70
2019-04-01T07:44:16.687Z,23.10
2019-04-01T07:47:06.846Z,23.40
2019-04-01T07:49:55.922Z,23.60
2019-04-01T07:52:45.600Z,23.80
2019-04-01T07:55:35.409Z,24.10
2019-04-01T07:58:25.399Z,24.40
2019-04-01T08:01:14.941Z,24.60
2019-04-01T08:04:04.948Z,24.80
2019-04-01T08:06:54.226Z,24.90
2019-04-01T08:09:43.921Z,25.00
2019-04-01T08:12:34.633Z,25.00
2019-04-01T08:15:24.297Z,25.10
2019-04-01T08:18:14.206Z,25.20
2019-04-01T08:21:04.351Z,25.30
2019-04-01T08:23:53.487Z,25.50
2019-04-01T08:26:43.606Z,25.70
2019-04-01T08:29:32.912Z,26.00
2019-04-01T08:32:22.519Z,26.10
2019-04-01T08:35:12.466Z,26.20
2019-04-01T08:38:01.698Z,26.30
2019-04-01T08:40:51.022Z,26.40
2019-04-01T08:43:40.990Z,26.60
2019-04-01T08:46:30.465Z,26.80
2019-04-01T08:49:20.158Z,26.90
2019-04-01T08:52:09.866Z,26.90
2019-04-01T08:54:59.829Z,26.80
2019-04-01T08:57:49.831Z,26.60
2019-04-01T09:00:39.261Z,26.50
2019-04-01T09:03:28.434Z,26.40
2019-04-01T09:06:17.724Z,26.40
2019-04-01T09:09:08.388Z,26.40
2019-04-01T09:11:59.190Z,26.50
2019-04-01T09:14:48.659Z,26.60
2019-04-01T09:17:40.304Z,26.80
2019-04-01T09:20:28.694Z,26.90
2019-04-01T09:23:18.473Z,27.00
2019-04-01T09:26:08.435Z,26.90
2019-04-01T09:28:58.555Z,26.90
2019-04-01T09:31:48.081Z,27.00
2019-04-01T09:34:38.252Z,27.10
2019-04-01T09:37:27.323Z,27.10
2019-04-01T09:40:19.630Z,27.20
2019-04-01T09:43:09.387Z,27.30
2019-04-01T09:45:59.477Z,27.30
2019-04-01T09:48:49.746Z,27.40
2019-04-01T09:51:48.624Z,27.40
2019-04-01T09:54:29.460Z,27.50
2019-04-01T09:57:19.383Z,27.60
2019-04-01T10:00:11.234Z,27.50
2019-04-01T10:03:00.485Z,27.50
2019-04-01T10:05:50.173Z,27.70
2019-04-01T10:08:42.639Z,27.80
2019-04-01T10:11:30.744Z,28.00
2019-04-01T10:14:20.835Z,28.30
2019-04-01T10:17:10.435Z,28.50
2019-04-01T10:20:01.008Z,28.60
2019-04-01T10:22:52.210Z,28.60
2019-04-01T10:25:42.400Z,28.70
2019-04-01T10:28:32.706Z,28.70
2019-04-01T10:31:21.845Z,28.80
2019-04-01T10:34:11.015Z,28.90
2019-04-01T10:37:00.147Z,28.90
2019-04-01T10:39:50.024Z,28.90
2019-04-01T10:42:38.931Z,28.90
2019-04-01T10:45:28.196Z,28.90
2019-04-01T10:48:18.165Z,28.70
2019-04-01T10:51:07.940Z,28.70
2019-04-01T10:53:57.876Z,28.80
2019-04-01T10:56:47.021Z,28.70
2019-04-01T10:59:36.330Z,28.50
2019-04-01T11:02:26.571Z,28.30
2019-04-01T11:05:17.491Z,28.20
2019-04-01T11:08:07.780Z,28.00
2019-04-01T11:10:57.714Z,27.80
2019-04-01T11:13:51.435Z,27.60
2019-04-01T11:16:37.999Z,27.30
2019-04-01T11:19:27.809Z,27.10
2019-04-01T11:22:17.892Z,26.80
2019-04-01T11:25:08.314Z,26.60
2019-04-01T11:27:58.483Z,26.30
2019-04-01T11:30:48.546Z,25.90
2019-04-01T11:33:38.454Z,25.40
2019-04-01T11:36:28.229Z,24.80
2019-04-01T11:39:17.966Z,24.20
2019-04-01T11:42:07.597Z,23.50
2019-04-01T11:44:57.690Z,22.90
2019-04-01T11:47:47.508Z,22.20
2019-04-01T11:50:36.392Z,21.60
2019-04-01T11:53:26.270Z,21.00
2019-04-01T11:56:15.486Z,20.50
2019-04-01T11:59:05.567Z,20.00
2019-04-01T12:01:55.351Z,19.50
2019-04-01T12:04:46.457Z,19.00
2019-04-01T12:07:35.883Z,18.60
2019-04-01T12:10:24.906Z,18.30
2019-04-01T12:13:15.003Z,18.00
2019-04-01T12:16:04.791Z,17.80
2019-04-01T12:18:54.494Z,17.60
2019-04-01T12:21:44.303Z,17.40
2019-04-01T12:24:36.656Z,17.30
2019-04-01T12:27:26.241Z,17.20
2019-04-01T12:30:15.692Z,17.10
2019-04-01T12:33:05.756Z,17.10
2019-04-01T12:35:55.527Z,17.00
2019-04-01T12:38:45.450Z,16.90
2019-04-01T12:41:37.749Z,16.80
2019-04-01T12:44:26.885Z,16.70
2019-04-01T12:47:16.676Z,16.70
2019-04-01T12:50:06.996Z,16.60
2019-04-01T12:52:56.272Z,16.50
2019-04-01T12:55:45.987Z,16.50
2019-04-01T12:58:35.786Z,16.40
2019-04-01T13:01:25.651Z,16.30
2019-04-01T13:04:15.866Z,16.20
2019-04-01T13:07:05.359Z,16.10
2019-04-01T13:09:55.285Z,16.10
2019-04-01T13:12:44.483Z,16.00
2019-04-01T13:15:34.295Z,15.90
2019-04-01T13:18:23.431Z,15.80
2019-04-01T13:21:13.804Z,15.80
2019-04-01T13:24:02.937Z,15.80
2019-04-01T13:26:52.666Z,15.80
2019-04-01T13:29:42.362Z,15.80
2019-04-01T13:32:33.114Z,15.80
2019-04-01T13:35:23.755Z,15.80
2019-04-01T13:38:15.067Z,15.80
2019-04-01T13:41:04.254Z,15.80
2019-04-01T13:43:54.030Z,15.80
2019-04-01T13:46:44.419Z,15.80
2019-04-01T13:49:34.660Z,15.80
2019-04-01T13:52:24.347Z,15.80
2019-04-01T13:55:14.337Z,15.70
2019-04-01T13:58:04.155Z,15.70
2019-04-01T14:00:53.900Z,15.60
2019-04-01T14:03:43.863Z,15.60
2019-04-01T14:06:33.656Z,15.60
2019-04-01T14:09:23.689Z,15.60
2019-04-01T14:12:13.563Z,15.60
2019-04-01T14:15:03.424Z,15.60
2019-04-01T14:17:53.142Z,15.70
2019-04-01T14:20:42.792Z,15.70
2019-04-01T14:23:32.240Z,15.70
2019-04-01T14:26:21.334Z,15.70
2019-04-01T14:29:10.438Z,15.60
2019-04-01T14:32:01.512Z,15.60
2019-04-01T14:34:51.495Z,15.50
2019-04-01T14:37:41.152Z,15.50
2019-04-01T14:40:32.588Z,15.40
2019-04-01T14:43:21.561Z,15.50
2019-04-01T14:46:11.176Z,15.40
2019-04-01T14:49:00.755Z,15.40
2019-04-01T14:51:51.530Z,15.40
2019-04-01T14:54:40.909Z,15.40
2019-04-01T14:57:29.945Z,15.30
2019-04-01T15:00:19.265Z,15.30
2019-04-01T15:03:09.570Z,15.30
2019-04-01T15:05:59.614Z,15.20
2019-04-01T15:08:49.599Z,15.20
2019-04-01T15:11:38.570Z,15.10
2019-04-01T15:14:28.690Z,15.10
2019-04-01T15:17:17.851Z,15.00
2019-04-01T15:20:08.358Z,15.00
2019-04-01T15:22:59.151Z,15.10
2019-04-01T15:25:49.325Z,15.00
2019-04-01T15:28:39.032Z,15.10
2019-04-01T15:31:27.994Z,15.00
2019-04-01T15:34:18.624Z,15.00
2019-04-01T15:37:08.807Z,15.00
2019-04-01T15:39:58.878Z,14.90
2019-04-01T15:42:48.624Z,14.90
2019-04-01T15:45:38.485Z,14.80
2019-04-01T15:48:28.558Z,14.70
2019-04-01T15:51:18.250Z,14.70
2019-04-01T15:54:07.998Z,14.70
2019-04-01T15:56:58.348Z,14.70
2019-04-01T15:59:48.423Z,14.60
2019-04-01T16:02:37.732Z,14.60
2019-04-01T16:05:30.379Z,14.60
2019-04-01T16:08:18.615Z,14.60
2019-04-01T16:11:08.147Z,14.50
2019-04-01T16:13:57.949Z,14.50
2019-04-01T16:16:47.935Z,14.40
2019-04-01T16:19:37.973Z,14.40
2019-04-01T16:22:32.319Z,14.30
2019-04-01T16:25:21.259Z,14.20
2019-04-01T16:28:11.195Z,14.20
2019-04-01T16:31:01.216Z,14.10
2019-04-01T16:33:51.159Z,14.00
2019-04-01T16:36:40.960Z,14.00
2019-04-01T16:39:30.739Z,14.00
2019-04-01T16:42:21.344Z,13.90
2019-04-01T16:45:13.306Z,13.80
2019-04-01T16:48:03.406Z,13.80
2019-04-01T16:50:53.331Z,13.70
2019-04-01T16:53:44.681Z,13.70
2019-04-01T16:56:34.597Z,13.60
2019-04-01T16:59:24.489Z,13.50
2019-04-01T17:02:18.364Z,13.50
2019-04-01T17:05:05.344Z,13.50
2019-04-01T17:07:55.317Z,13.40
2019-04-01T17:10:45.380Z,13.30
2019-04-01T17:13:35.248Z,13.30
2019-04-01T17:16:25.077Z,13.20
2019-04-01T17:19:16.166Z,13.20
2019-04-01T17:22:06.120Z,13.10
2019-04-01T17:24:57.174Z,13.00
2019-04-01T17:27:47.309Z,12.90
2019-04-01T17:30:37.081Z,12.80
2019-04-01T17:33:26.148Z,12.80
2019-04-01T17:36:16.015Z,12.70
2019-04-01T17:39:06.837Z,12.70
2019-04-01T17:41:57.052Z,12.60
2019-04-01T17:44:47.596Z,12.60
2019-04-01T17:47:36.943Z,12.50
2019-04-01T17:50:27.127Z,12.40
2019-04-01T17:53:16.394Z,12.30
2019-04-01T17:56:07.311Z,12.20
2019-04-01T17:58:57.251Z,12.20
2019-04-01T18:01:47.547Z,12.10
2019-04-01T18:04:36.893Z,12.00
2019-04-01T18:07:26.852Z,12.00
2019-04-01T18:10:17.082Z,12.00
2019-04-01T18:13:07.433Z,11.90
2019-04-01T18:15:57.458Z,11.80
2019-04-01T18:18:49.292Z,11.70
2019-04-01T18:21:42.660Z,11.70
2019-04-01T18:24:32.492Z,11.60
2019-04-01T18:27:21.520Z,11.50
2019-04-01T18:30:13.825Z,11.50
2019-04-01T18:33:02.904Z,11.40
2019-04-01T18:35:54.228Z,11.30
2019-04-01T18:38:46.944Z,11.30
2019-04-01T18:41:36.919Z,11.20
2019-04-01T18:44:26.534Z,11.20
2019-04-01T18:47:16.186Z,11.20
2019-04-01T18:50:07.004Z,11.10
2019-04-01T18:52:56.730Z,11.10
2019-04-01T18:55:46.692Z,11.10
2019-04-01T18:58:36.468Z,11.00
2019-04-01T19:01:25.498Z,11.00
2019-04-01T19:04:15.384Z,10.90
2019-04-01T19:07:06.579Z,10.90
2019-04-01T19:10:05.925Z,10.80
2019-04-01T19:12:47.856Z,10.80
2019-04-01T19:15:40.995Z,10.70
2019-04-01T19:18:28.976Z,10.60
2019-04-01T19:21:19.084Z,10.60
2019-04-01T19:24:08.771Z,10.50
2019-04-01T19:26:58.359Z,10.50
2019-04-01T19:29:48.214Z,10.40
2019-04-01T19:32:38.428Z,10.30
2019-04-01T19:35:29.027Z,10.30
2019-04-01T19:38:21.371Z,10.30
2019-04-01T19:41:09.677Z,10.20
2019-04-01T19:44:00.243Z,10.20
2019-04-01T19:46:50.573Z,10.20
2019-04-01T19:49:40.617Z,10.10
2019-04-01T19:52:30.580Z,10.10
2019-04-01T19:55:20.520Z,10.00
2019-04-01T19:58:10.680Z,10.00
2019-04-01T20:01:00.189Z,9.90
2019-04-01T20:03:50.241Z,9.90
2019-04-01T20:06:40.790Z,9.90
2019-04-01T20:09:30.160Z,9.90
2019-04-01T20:12:20.155Z,9.90
2019-04-01T20:15:12.206Z,9.80
2019-04-01T20:18:02.398Z,9.80
2019-04-01T20:20:51.338Z,9.80
2019-04-01T20:23:40.536Z,9.80
2019-04-01T20:26:30.568Z,9.70
2019-04-01T20:29:20.603Z,9.70
2019-04-01T20:32:17.220Z,9.70
2019-04-01T20:35:01.216Z,9.70
2019-04-01T20:37:50.953Z,9.70
2019-04-01T20:40:41.871Z,9.60
2019-04-01T20:43:31.553Z,9.60
2019-04-01T20:46:21.258Z,9.50
2019-04-01T20:49:11.391Z,9.50
2019-04-01T20:52:00.458Z,9.50
2019-04-01T20:54:53.798Z,9.50
2019-04-01T20:57:48.124Z,9.50
2019-04-01T21:00:39.317Z,9.40
2019-04-01T21:03:35.177Z,9.40
2019-04-01T21:06:25.532Z,9.40
2019-04-01T21:09:16.111Z,9.40
2019-04-01T21:12:06.104Z,9.40
2019-04-01T21:14:56.124Z,9.30
2019-04-01T21:17:46.511Z,9.30
2019-04-01T21:20:36.461Z,9.30
2019-04-01T21:23:26.330Z,9.20
2019-04-01T21:26:16.101Z,9.10
2019-04-01T21:29:05.406Z,9.10
2019-04-01T21:31:55.085Z,9.10
2019-04-01T21:34:44.221Z,9.00
2019-04-01T21:37:35.164Z,9.00
2019-04-01T21:40:25.785Z,8.90
2019-04-01T21:43:15.054Z,8.90
2019-04-01T21:46:04.363Z,8.90
2019-04-01T21:48:53.334Z,8.80
2019-04-01T21:51:42.979Z,8.80
2019-04-01T21:54:32.952Z,8.80
2019-04-01T21:57:23.435Z,8.80
2019-04-01T22:00:19.732Z,8.70
2019-04-01T22:03:13.178Z,8.70
2019-04-01T22:06:02.961Z,8.70
2019-04-01T22:08:53.119Z,8.70
2019-04-01T22:11:43.543Z,8.70
2019-04-01T22:14:34.114Z,8.70
2019-04-01T22:17:24.346Z,8.70
2019-04-01T22:20:14.596Z,8.70
2019-04-01T22:23:05.244Z,8.70
2019-04-01T22:25:55.367Z,8.70
2019-04-01T22:28:44.980Z,8.70
2019-04-01T22:31:34.806Z,8.60
2019-04-01T22:34:24.475Z,8.60
2019-04-01T22:37:26.356Z,8.60
2019-04-01T22:40:05.406Z,8.50
2019-04-01T22:42:56.187Z,8.50
2019-04-01T22:45:46.752Z,8.50
2019-04-01T22:48:36.483Z,8.50
2019-04-01T22:51:25.582Z,8.40
2019-04-01T22:54:14.571Z,8.40
2019-04-01T22:57:04.603Z,8.40
2019-04-01T22:59:53.753Z,8.40
2019-04-01T23:02:43.333Z,8.40
2019-04-01T23:05:33.521Z,8.40
2019-04-01T23:08:22.795Z,8.30
2019-04-01T23:11:12.788Z,8.40
2019-04-01T23:14:01.978Z,8.40
2019-04-01T23:16:51.115Z,8.40
2019-04-01T23:19:40.820Z,8.40
2019-04-01T23:22:30.504Z,8.40
2019-04-01T23:25:19.874Z,8.40
2019-04-01T23:28:09.000Z,8.40
2019-04-01T23:30:57.971Z,8.40
2019-04-01T23:33:47.129Z,8.40
2019-04-01T23:36:37.714Z,8.40
2019-04-01T23:39:27.387Z,8.40
2019-04-01T23:42:17.506Z,8.40
2019-04-01T23:45:07.582Z,8.40
2019-04-01T23:47:57.712Z,8.40
2019-04-01T23:50:46.810Z,8.40
2019-04-01T23:53:36.532Z,8.40
2019-04-01T23:56:27.283Z,8.40
2019-04-01T23:59:16.829Z,8.40
